Time;durP1;ratioP1;P1;durP2;ratioP2;P2;SDS_P1;SDS_P2;PMS_P1;PMS_P2;Temp;Humidity;BMP_temperature;BMP_pressure;BME280_temperature;BME280_humidity;BME280_pressure;Samples;Min_cycle;Max_cycle;Signal;HPM_P1;HPM_P2
2023/04/02 00:01:43;;;;;;;4.60;1.23;;;;;;;8.55;52.20;94101.50;5028826;28;20037;-82
2023/04/02 00:04:21;;;;;;;5.22;1.20;;;;;;;8.60;51.93;94097.41;5027962;28;20022;-81
2023/04/02 00:06:53;;;;;;;2.50;1.13;;;;;;;8.70;51.29;94102.53;5028223;28;20025;-82
2023/04/02 00:09:29;;;;;;;1.77;0.88;;;;;;;8.59;51.05;94093.16;5026959;28;20040;-81
2023/04/02 00:11:54;;;;;;;2.92;0.80;;;;;;;8.58;51.38;94088.88;5026365;28;20544;-82
2023/04/02 00:14:33;;;;;;;3.67;0.80;;;;;;;8.46;51.72;94090.47;5026489;28;20049;-81
2023/04/02 00:17:01;;;;;;;1.88;0.70;;;;;;;8.46;51.28;94093.19;5026057;28;20060;-82
2023/04/02 00:19:35;;;;;;;1.33;0.70;;;;;;;8.41;51.73;94088.28;5009932;28;20037;-82
2023/04/02 00:22:02;;;;;;;2.10;0.70;;;;;;;8.45;51.65;94086.19;5010064;28;20196;-82
2023/04/02 00:24:27;;;;;;;1.25;0.55;;;;;;;8.41;51.82;94088.28;5026174;28;20040;-81
2023/04/02 00:26:53;;;;;;;1.63;0.65;;;;;;;8.48;51.25;94083.31;5026799;28;20429;-81
2023/04/02 00:29:19;;;;;;;1.50;0.70;;;;;;;8.57;51.21;94076.41;5009206;28;20492;-81
2023/04/02 00:31:48;;;;;;;3.05;0.80;;;;;;;8.58;50.75;94078.69;5026628;28;20021;-81
2023/04/02 00:34:20;;;;;;;0.68;0.50;;;;;;;8.67;50.78;94081.50;5027416;28;20112;-83
2023/04/02 00:36:46;;;;;;;1.15;0.40;;;;;;;8.74;50.00;94080.50;5026458;28;20420;-81
2023/04/02 00:39:18;;;;;;;3.08;0.85;;;;;;;8.77;50.24;94074.09;5025956;28;20087;-81
2023/04/02 00:41:45;;;;;;;3.28;0.85;;;;;;;8.66;50.56;94073.72;5025993;28;20029;-81
2023/04/02 00:44:13;;;;;;;3.28;0.90;;;;;;;8.66;50.91;94079.19;5038070;28;20559;-81
2023/04/02 00:46:48;;;;;;;1.73;0.80;;;;;;;8.70;50.88;94090.81;5025932;28;20484;-81
2023/04/02 00:49:20;;;;;;;1.73;0.68;;;;;;;8.54;50.89;94082.75;5026115;28;20033;-81
2023/04/02 00:52:13;;;;;;;0.98;0.57;;;;;;;8.70;50.30;94080.59;5027719;28;20060;-83
2023/04/02 00:54:44;;;;;;;1.05;0.45;;;;;;;8.73;50.44;94085.22;5023347;28;20044;-81
2023/04/02 00:57:16;;;;;;;1.10;0.68;;;;;;;8.88;50.22;94079.97;5025385;28;20064;-82
2023/04/02 01:00:07;;;;;;;2.67;1.20;;;;;;;8.98;49.85;94078.06;5026942;28;20032;-82
2023/04/02 01:02:37;;;;;;;2.10;1.10;;;;;;;8.97;50.06;94082.78;5006984;28;20040;-81
2023/04/02 01:05:14;;;;;;;1.52;0.70;;;;;;;8.89;49.98;94080.72;5027506;28;20508;-81
2023/04/02 01:08:11;;;;;;;0.57;0.50;;;;;;;8.96;49.96;94080.50;5026948;28;20039;-81
2023/04/02 01:10:49;;;;;;;1.23;0.60;;;;;;;8.69;50.06;94081.06;5025895;28;20091;-81
2023/04/02 01:13:27;;;;;;;1.85;0.70;;;;;;;8.80;50.04;94086.94;5025252;28;20443;-81
2023/04/02 01:16:13;;;;;;;1.48;0.50;;;;;;;8.70;50.19;94088.06;5025906;28;20102;-81
2023/04/02 01:19:17;;;;;;;0.50;0.40;;;;;;;8.60;50.21;94087.25;5025924;28;20071;-81
2023/04/02 01:21:45;;;;;;;0.82;0.60;;;;;;;8.84;49.90;94093.06;5025178;28;20040;-80
2023/04/02 01:24:12;;;;;;;1.17;0.68;;;;;;;8.89;50.01;94091.69;5027011;28;20480;-81
2023/04/02 01:26:57;;;;;;;3.08;0.75;;;;;;;8.98;50.10;94083.53;5024973;28;20040;-81
2023/04/02 01:29:37;;;;;;;2.33;0.90;;;;;;;8.93;50.58;94092.34;5024726;28;20135;-81
2023/04/02 01:32:09;;;;;;;1.45;0.70;;;;;;;9.02;50.45;94092.41;5025454;28;20025;-80
2023/04/02 01:34:35;;;;;;;2.20;1.00;;;;;;;9.05;50.65;94092.25;5028186;28;20102;-80
2023/04/02 01:37:33;;;;;;;1.60;1.00;;;;;;;9.07;50.58;94099.31;5034651;28;20061;-81
2023/04/02 01:40:23;;;;;;;4.28;1.98;;;;;;;9.03;51.24;94107.66;4985335;28;20081;-82
2023/04/02 01:43:15;;;;;;;5.75;2.30;;;;;;;9.03;51.59;94102.94;4984648;28;20062;-81
2023/04/02 01:45:41;;;;;;;4.63;1.65;;;;;;;8.95;52.15;94109.13;4984805;28;20068;-81
2023/04/02 01:48:18;;;;;;;2.53;1.40;;;;;;;8.87;52.38;94105.09;4984419;28;20053;-80
2023/04/02 01:50:45;;;;;;;3.90;1.75;;;;;;;8.86;52.17;94098.09;4987799;28;20113;-81
2023/04/02 01:53:15;;;;;;;4.10;1.70;;;;;;;8.82;52.46;94108.41;4988230;28;20038;-81
2023/04/02 01:55:42;;;;;;;4.28;1.80;;;;;;;8.79;52.55;94101.84;4984938;28;20046;-81
2023/04/02 01:58:10;;;;;;;3.13;1.90;;;;;;;8.75;52.82;94101.19;4984720;28;20050;-81
2023/04/02 02:00:42;;;;;;;3.88;2.22;;;;;;;8.69;52.72;94100.22;4983930;28;20138;-81
2023/04/02 02:03:10;;;;;;;3.80;2.10;;;;;;;8.64;53.22;94092.56;4984434;28;20038;-81
2023/04/02 02:05:35;;;;;;;3.80;2.17;;;;;;;8.59;53.67;94095.88;4983930;28;20039;-81
2023/04/02 02:08:01;;;;;;;3.80;2.20;;;;;;;8.54;53.97;94099.19;4967135;28;20035;-81
2023/04/02 02:10:33;;;;;;;6.97;3.10;;;;;;;8.19;54.86;94088.19;4968159;28;20053;-81
2023/04/02 02:12:59;;;;;;;4.90;2.50;;;;;;;8.23;55.10;94099.81;4983611;28;20547;-81
2023/04/02 02:15:25;;;;;;;4.57;2.60;;;;;;;8.05;55.34;94094.16;4990584;28;20120;-81
2023/04/02 02:17:55;;;;;;;5.60;2.70;;;;;;;8.08;55.78;94102.22;5024036;28;20029;-81
2023/04/02 02:20:21;;;;;;;4.70;2.60;;;;;;;8.04;55.70;94089.88;5024992;28;20033;-82
2023/04/02 02:22:48;;;;;;;6.78;3.40;;;;;;;7.92;56.09;94085.97;5023774;28;20031;-82
2023/04/02 02:25:34;;;;;;;4.00;2.15;;;;;;;7.93;56.14;94092.97;5024160;28;20231;-81
2023/04/02 02:28:10;;;;;;;5.00;2.70;;;;;;;7.79;56.25;94093.41;5033316;28;20030;-82
2023/04/02 02:30:40;;;;;;;4.05;2.40;;;;;;;7.78;56.28;94092.63;5027005;28;20056;-82
2023/04/02 02:33:27;;;;;;;3.47;2.28;;;;;;;7.82;56.09;94089.78;5025921;28;20029;-82
2023/04/02 02:36:02;;;;;;;3.10;2.03;;;;;;;7.76;56.13;94097.03;5024836;28;20029;-81
2023/04/02 02:38:33;;;;;;;3.45;2.35;;;;;;;7.81;55.94;94088.28;5023917;28;20029;-82
2023/04/02 02:41:07;;;;;;;2.67;1.98;;;;;;;7.86;55.75;94093.97;5025783;28;20049;-81
2023/04/02 02:43:34;;;;;;;3.17;1.95;;;;;;;7.84;55.57;94096.34;5023331;28;20029;-81
2023/04/02 02:46:02;;;;;;;2.42;1.27;;;;;;;7.84;55.45;94088.13;5023927;28;20035;-81
2023/04/02 02:48:35;;;;;;;1.85;1.30;;;;;;;7.82;55.61;94087.81;5023646;28;20414;-81
2023/04/02 02:51:05;;;;;;;2.00;1.33;;;;;;;7.86;55.16;94087.72;5025265;28;20377;-81
2023/04/02 02:53:31;;;;;;;5.22;1.52;;;;;;;7.89;54.85;94078.63;5025401;28;20032;-82
2023/04/02 02:55:57;;;;;;;1.50;1.10;;;;;;;7.89;54.66;94084.09;5024309;28;20022;-81
2023/04/02 02:58:30;;;;;;;2.58;1.27;;;;;;;7.90;54.82;94074.66;5025162;28;20068;-82
2023/04/02 03:00:55;;;;;;;3.42;1.63;;;;;;;7.98;54.19;94081.47;5023235;28;20032;-82
2023/04/02 03:03:23;;;;;;;3.67;1.60;;;;;;;8.01;53.86;94086.03;5023723;28;20030;-80
2023/04/02 03:05:55;;;;;;;3.15;1.65;;;;;;;7.89;53.96;94078.63;5023147;28;20503;-81
2023/04/02 03:08:27;;;;;;;3.22;1.80;;;;;;;7.90;54.07;94086.38;5025038;28;20037;-81
2023/04/02 03:11:05;;;;;;;2.78;1.70;;;;;;;7.96;54.10;94089.34;5023628;28;20037;-81
2023/04/02 03:13:34;;;;;;;3.70;2.20;;;;;;;7.97;53.96;94093.59;5023398;28;20026;-80
2023/04/02 03:16:07;;;;;;;3.55;1.88;;;;;;;7.82;54.38;94087.81;5023403;28;20030;-80
2023/04/02 03:18:38;;;;;;;4.00;2.38;;;;;;;7.77;54.51;94093.84;5024592;28;20131;-80
2023/04/02 03:21:32;;;;;;;9.73;5.57;;;;;;;7.81;54.40;94099.97;5030101;28;20040;-80
2023/04/02 03:24:38;;;;;;;7.90;4.20;;;;;;;7.80;54.41;94092.97;5034992;28;20452;-80
2023/04/02 03:27:19;;;;;;;4.50;2.40;;;;;;;7.71;54.70;94095.59;5028462;28;20123;-81
2023/04/02 03:29:52;;;;;;;4.18;1.85;;;;;;;7.68;54.99;94089.06;5027387;28;20487;-81
2023/04/02 03:32:28;;;;;;;3.03;1.90;;;;;;;7.82;54.82;94093.28;5027246;28;20052;-81
2023/04/02 03:34:59;;;;;;;2.15;1.63;;;;;;;7.89;54.45;94097.78;5026817;28;20040;-81
2023/04/02 03:37:48;;;;;;;4.18;2.15;;;;;;;7.88;54.31;94097.00;5027349;28;20029;-81
2023/04/02 03:40:27;;;;;;;4.72;1.88;;;;;;;7.83;54.11;94105.00;5007213;28;20041;-81
2023/04/02 03:43:18;;;;;;;3.22;1.80;;;;;;;7.83;54.32;94107.75;5027578;28;20021;-82
2023/04/02 03:45:48;;;;;;;3.95;1.63;;;;;;;7.75;54.39;94100.97;5027264;28;20040;-82
2023/04/02 03:48:30;;;;;;;3.42;1.75;;;;;;;7.81;54.52;94101.94;5026593;28;20026;-82
2023/04/02 03:51:00;;;;;;;2.20;1.60;;;;;;;7.81;54.15;94107.44;5026749;28;20029;-80
2023/04/02 03:53:25;;;;;;;4.70;2.15;;;;;;;7.79;54.27;94102.38;5028214;28;20013;-80
2023/04/02 03:55:51;;;;;;;4.97;2.58;;;;;;;7.66;54.54;94098.88;5026653;28;20053;-80
2023/04/02 03:58:27;;;;;;;2.65;1.98;;;;;;;7.60;54.78;94100.63;5026362;28;20039;-80
2023/04/02 04:01:21;;;;;;;4.28;1.77;;;;;;;7.57;55.00;94098.75;5026243;28;20480;-81
2023/04/02 04:03:49;;;;;;;5.10;1.90;;;;;;;7.59;55.00;94096.38;5028360;28;20068;-83
2023/04/02 04:06:35;;;;;;;3.00;1.60;;;;;;;7.61;54.93;94110.38;5026588;28;20040;-81
2023/04/02 04:09:10;;;;;;;3.85;1.63;;;;;;;7.60;54.80;94112.34;5026903;28;20108;-81
2023/04/02 04:11:38;;;;;;;2.78;1.77;;;;;;;7.59;54.75;94104.56;5026759;28;20017;-82
2023/04/02 04:14:30;;;;;;;2.70;1.60;;;;;;;7.40;55.36;94109.06;5025933;28;20032;-81
2023/04/02 04:17:03;;;;;;;2.63;1.50;;;;;;;7.40;55.40;94104.34;5037416;28;20044;-80
2023/04/02 04:19:53;;;;;;;5.35;2.10;;;;;;;7.40;55.58;94109.81;5026417;28;20104;-80
2023/04/02 04:22:31;;;;;;;3.58;1.83;;;;;;;7.42;55.39;94118.34;5027950;28;20040;-80
2023/04/02 04:25:03;;;;;;;3.35;2.10;;;;;;;7.44;55.60;94120.63;5028039;28;20029;-80
2023/04/02 04:27:42;;;;;;;3.78;2.60;;;;;;;7.42;55.54;94123.06;5025933;28;20057;-80
2023/04/02 04:30:46;;;;;;;3.53;1.70;;;;;;;7.42;55.62;94123.06;5028121;28;20057;-81
2023/04/02 04:33:24;;;;;;;3.53;1.90;;;;;;;7.43;55.49;94125.34;5010195;28;20045;-80
2023/04/02 04:35:56;;;;;;;5.38;2.50;;;;;;;7.38;55.71;94128.63;5010084;28;20123;-81
2023/04/02 04:38:31;;;;;;;5.68;2.28;;;;;;;7.32;55.93;94119.41;5027663;28;20025;-81
2023/04/02 04:41:04;;;;;;;4.40;2.50;;;;;;;7.37;55.89;94129.81;5027152;28;20025;-81
2023/04/02 04:43:41;;;;;;;4.63;2.80;;;;;;;7.37;55.61;94127.09;5027622;28;20404;-81
2023/04/02 04:46:17;;;;;;;6.72;4.32;;;;;;;7.24;55.69;94128.28;5025721;28;20021;-80
2023/04/02 04:48:51;;;;;;;14.90;7.78;;;;;;;7.23;56.03;94124.78;5025558;28;20028;-80
2023/04/02 04:51:22;;;;;;;10.63;5.82;;;;;;;7.22;56.21;94134.16;5027369;28;20068;-79
2023/04/02 04:53:50;;;;;;;8.52;4.35;;;;;;;7.23;56.07;94132.22;5025778;28;20060;-80
2023/04/02 04:56:23;;;;;;;10.63;4.32;;;;;;;7.18;56.11;94131.53;5027127;28;20077;-80
2023/04/02 04:59:00;;;;;;;6.30;3.50;;;;;;;7.17;56.35;94140.94;5026555;28;20113;-81
2023/04/02 05:01:49;;;;;;;4.75;3.10;;;;;;;7.14;56.21;94136.34;5025520;28;20057;-80
2023/04/02 05:04:24;;;;;;;6.32;2.88;;;;;;;7.17;56.46;94142.94;5027035;28;20022;-80
2023/04/02 05:06:59;;;;;;;8.38;3.58;;;;;;;7.11;56.59;94148.16;5009540;28;20036;-82
2023/04/02 05:09:49;;;;;;;13.32;5.50;;;;;;;7.10;56.46;94134.91;5027812;28;20026;-82
2023/04/02 05:12:34;;;;;;;13.35;4.55;;;;;;;7.10;56.56;94140.38;5035603;28;20065;-82
2023/04/02 05:15:03;;;;;;;10.80;4.68;;;;;;;7.09;56.77;94133.38;5008665;28;20087;-81
2023/04/02 05:17:50;;;;;;;7.43;3.50;;;;;;;7.13;56.83;94143.00;5026811;28;20068;-81
2023/04/02 05:20:22;;;;;;;7.38;3.17;;;;;;;7.15;56.74;94145.31;5024722;28;20105;-81
2023/04/02 05:23:01;;;;;;;7.25;2.92;;;;;;;7.23;56.40;94148.63;5025396;28;20036;-80
2023/04/02 05:25:28;;;;;;;4.75;2.72;;;;;;;7.26;56.41;94150.47;5025089;28;20033;-81
2023/04/02 05:28:05;;;;;;;5.00;2.60;;;;;;;7.32;56.20;94156.94;5026018;28;20045;-80
2023/04/02 05:30:36;;;;;;;4.68;2.10;;;;;;;7.38;56.19;94155.19;5026561;28;20037;-80
2023/04/02 05:33:14;;;;;;;4.53;2.63;;;;;;;7.47;56.19;94157.31;5025998;28;20094;-80
2023/04/02 05:35:46;;;;;;;7.35;3.28;;;;;;;7.53;56.40;94163.75;5025147;28;20104;-81
2023/04/02 05:38:24;;;;;;;6.75;3.25;;;;;;;7.58;56.64;94164.00;5024971;28;20030;-80
2023/04/02 05:40:58;;;;;;;5.07;2.85;;;;;;;7.67;56.54;94166.06;5024762;28;20032;-81
2023/04/02 05:43:24;;;;;;;4.68;2.33;;;;;;;7.75;56.18;94172.09;5024165;28;20025;-80
2023/04/02 05:45:54;;;;;;;4.25;2.83;;;;;;;7.82;56.05;94171.88;5008050;28;20033;-80
2023/04/02 05:48:48;;;;;;;4.45;2.42;;;;;;;7.90;55.88;94171.22;5024838;28;20061;-81
2023/04/02 05:51:21;;;;;;;12.30;3.17;;;;;;;7.97;55.77;94165.53;5022618;28;20120;-80
2023/04/02 05:53:59;;;;;;;4.05;2.20;;;;;;;8.10;55.55;94173.75;5024357;28;20048;-81
2023/04/02 05:56:41;;;;;;;5.35;3.05;;;;;;;8.21;55.58;94176.91;5024263;28;20041;-79
2023/04/02 05:59:12;;;;;;;5.43;2.50;;;;;;;8.36;55.62;94177.25;5024107;28;20029;-80
2023/04/02 06:01:39;;;;;;;3.40;2.22;;;;;;;8.49;55.48;94182.72;5024650;28;20040;-81
2023/04/02 06:04:42;;;;;;;3.90;2.85;;;;;;;8.62;55.28;94177.97;5024561;28;20519;-81
2023/04/02 06:07:14;;;;;;;3.58;1.90;;;;;;;8.76;55.36;94182.97;5032173;28;20087;-80
2023/04/02 06:09:41;;;;;;;1.85;1.27;;;;;;;8.91;55.08;94186.00;5024755;28;20033;-80
2023/04/02 06:12:30;;;;;;;3.65;1.70;;;;;;;9.00;54.90;94177.84;5024415;28;20017;-80
2023/04/02 06:14:55;;;;;;;2.60;1.42;;;;;;;9.12;54.51;94183.69;5007606;28;20108;-82
2023/04/02 06:17:21;;;;;;;2.65;1.85;;;;;;;9.24;54.30;94191.13;5024102;28;20167;-81
2023/04/02 06:19:48;;;;;;;3.63;1.73;;;;;;;9.31;54.27;94177.16;5024042;28;20075;-81
2023/04/02 06:22:34;;;;;;;2.65;1.90;;;;;;;9.46;54.03;94180.13;5024088;28;20033;-81
2023/04/02 06:25:22;;;;;;;3.63;1.85;;;;;;;9.56;53.85;94177.00;5025123;28;20389;-81
2023/04/02 06:27:49;;;;;;;4.53;2.17;;;;;;;9.29;54.60;94183.09;5024960;28;20045;-81
2023/04/02 06:30:20;;;;;;;5.03;2.10;;;;;;;9.55;53.68;94185.69;5024248;28;20158;-80
2023/04/02 06:32:46;;;;;;;4.05;1.75;;;;;;;9.66;53.34;94177.06;5023574;28;20111;-82
2023/04/02 06:35:12;;;;;;;4.30;1.70;;;;;;;9.76;52.76;94176.66;5025369;28;20080;-78
2023/04/02 06:37:39;;;;;;;3.35;1.83;;;;;;;9.83;52.57;94184.63;5023266;28;20854;-81
2023/04/02 06:40:17;;;;;;;3.60;1.83;;;;;;;9.95;52.56;94179.50;5024088;28;20511;-81
2023/04/02 06:42:43;;;;;;;3.00;2.00;;;;;;;10.04;52.05;94174.06;5023260;28;20128;-78
2023/04/02 06:45:18;;;;;;;5.18;2.35;;;;;;;10.18;52.45;94180.97;5025261;28;20052;-81
2023/04/02 06:47:46;;;;;;;6.32;2.60;;;;;;;10.28;51.61;94175.09;5023679;28;20123;-81
2023/04/02 06:50:30;;;;;;;3.53;2.30;;;;;;;10.31;51.44;94190.63;5023397;28;20114;-79
2023/04/02 06:53:04;;;;;;;3.35;2.35;;;;;;;10.39;51.13;94177.41;5024058;28;20026;-80
2023/04/02 06:55:50;;;;;;;5.10;2.10;;;;;;;10.61;50.98;94185.56;5023063;28;20082;-81
2023/04/02 06:58:17;;;;;;;2.95;1.63;;;;;;;10.77;49.80;94190.75;5023317;28;20037;-81
2023/04/02 07:00:47;;;;;;;3.38;1.30;;;;;;;10.92;48.77;94187.44;5033812;28;20033;-82
2023/04/02 07:03:33;;;;;;;2.45;1.10;;;;;;;11.05;47.20;94191.56;5026350;28;20731;-81
2023/04/02 07:06:01;;;;;;;2.08;0.90;;;;;;;11.13;47.35;94197.53;5025669;28;20107;-81
2023/04/02 07:08:26;;;;;;;1.98;0.98;;;;;;;11.20;47.61;94191.72;5027197;28;20029;-82
2023/04/02 07:10:52;;;;;;;3.47;1.20;;;;;;;11.34;46.78;94202.09;5025847;28;20036;-80
2023/04/02 07:13:20;;;;;;;3.35;1.42;;;;;;;11.52;46.46;94201.31;5024977;28;20025;-81
2023/04/02 07:15:47;;;;;;;3.75;1.42;;;;;;;11.66;46.17;94192.44;5023041;28;20030;-80
2023/04/02 07:18:25;;;;;;;1.20;0.68;;;;;;;11.81;46.15;94195.31;5024986;28;20032;-81
2023/04/02 07:20:51;;;;;;;1.65;0.80;;;;;;;11.74;45.31;94203.13;5024200;28;20108;-81
2023/04/02 07:23:16;;;;;;;1.70;0.75;;;;;;;11.69;44.89;94207.25;5023292;28;20180;-82
2023/04/02 07:25:41;;;;;;;2.13;0.57;;;;;;;11.92;45.00;94214.88;5024296;28;20022;-82
2023/04/02 07:28:07;;;;;;;1.38;0.70;;;;;;;11.99;44.85;94204.78;5024916;28;20484;-81
2023/04/02 07:30:32;;;;;;;2.92;0.80;;;;;;;12.20;44.34;94209.28;5024259;28;20020;-81
2023/04/02 07:32:58;;;;;;;1.02;0.77;;;;;;;12.36;44.11;94211.69;5024545;28;20546;-81
2023/04/02 07:35:23;;;;;;;1.02;0.88;;;;;;;12.51;43.58;94213.78;5024840;28;20104;-81
2023/04/02 07:37:49;;;;;;;3.95;0.80;;;;;;;12.63;43.56;94218.31;5024104;28;20025;-81
2023/04/02 07:40:20;;;;;;;2.75;0.80;;;;;;;12.62;43.40;94220.31;5024605;28;20048;-81
2023/04/02 07:42:46;;;;;;;1.95;0.80;;;;;;;12.82;43.27;94207.94;5024265;28;20028;-81
2023/04/02 07:45:12;;;;;;;3.42;0.82;;;;;;;12.94;42.10;94215.97;5023476;28;20029;-81
2023/04/02 07:47:38;;;;;;;0.98;0.70;;;;;;;12.86;41.91;94212.06;5023838;28;20026;-81
2023/04/02 07:50:04;;;;;;;1.15;0.77;;;;;;;13.09;40.78;94221.56;5023000;28;20032;-81
2023/04/02 07:52:30;;;;;;;1.20;0.60;;;;;;;13.02;41.30;94222.69;5024744;28;20060;-81
2023/04/02 07:54:56;;;;;;;0.82;0.55;;;;;;;13.09;41.42;94218.81;5028425;28;20105;-80
2023/04/02 07:57:21;;;;;;;2.20;0.80;;;;;;;13.08;41.22;94214.53;5027450;28;20125;-80
2023/04/02 07:59:47;;;;;;;1.80;0.80;;;;;;;13.16;41.91;94217.69;5024314;28;20037;-80
2023/04/02 08:02:20;;;;;;;1.67;0.90;;;;;;;13.04;41.46;94216.69;5024362;28;20033;-80
2023/04/02 08:04:46;;;;;;;2.38;0.98;;;;;;;13.32;40.95;94222.06;5024045;28;20033;-81
2023/04/02 08:07:11;;;;;;;1.98;0.70;;;;;;;13.43;41.07;94225.78;5024688;28;20040;-81
2023/04/02 08:09:37;;;;;;;2.10;0.90;;;;;;;13.47;41.54;94225.59;5028261;28;20026;-80
2023/04/02 08:12:02;;;;;;;2.83;1.50;;;;;;;13.53;41.83;94218.97;5027636;28;20037;-80
2023/04/02 08:14:28;;;;;;;2.78;1.63;;;;;;;13.97;41.44;94223.75;5028593;28;20032;-80
2023/04/02 08:16:54;;;;;;;1.55;1.10;;;;;;;14.24;40.65;94225.47;5027371;28;20021;-81
2023/04/02 08:19:20;;;;;;;2.92;1.80;;;;;;;14.34;39.81;94237.19;5026507;28;20037;-81
2023/04/02 08:21:48;;;;;;;2.85;1.63;;;;;;;14.58;39.52;94240.63;5025723;28;20478;-81
2023/04/02 08:24:14;;;;;;;1.33;0.88;;;;;;;14.78;39.10;94236.38;5028030;28;20072;-81
2023/04/02 08:26:40;;;;;;;3.22;0.98;;;;;;;15.04;38.11;94231.72;5025845;28;20128;-80
2023/04/02 08:29:05;;;;;;;3.38;1.27;;;;;;;15.43;37.76;94227.94;5026922;28;20040;-80
2023/04/02 08:31:31;;;;;;;2.58;1.33;;;;;;;15.54;37.51;94226.06;5026209;28;20049;-80
2023/04/02 08:33:57;;;;;;;2.45;1.00;;;;;;;15.56;36.98;94233.88;5026779;28;20021;-80
2023/04/02 08:36:28;;;;;;;1.52;0.85;;;;;;;15.96;36.60;94244.16;5029890;28;20479;-80
2023/04/02 08:38:57;;;;;;;1.98;0.77;;;;;;;16.16;35.70;94237.78;5027944;28;20029;-78
2023/04/02 08:41:27;;;;;;;1.42;0.70;;;;;;;16.45;35.61;94236.78;5029508;28;20052;-81
2023/04/02 08:44:08;;;;;;;1.95;0.50;;;;;;;16.98;35.00;94229.88;5027395;28;20025;-82
2023/04/02 08:46:48;;;;;;;1.13;0.60;;;;;;;17.39;34.42;94237.94;5009080;28;20029;-81
2023/04/02 08:49:17;;;;;;;1.38;0.90;;;;;;;17.47;33.36;94231.38;5032178;28;20181;-79
2023/04/02 08:51:43;;;;;;;2.38;1.05;;;;;;;17.25;33.86;94248.69;5029074;28;20041;-81
2023/04/02 08:54:28;;;;;;;0.85;0.60;;;;;;;17.51;33.14;94242.28;5026400;28;20235;-80
2023/04/02 08:56:54;;;;;;;1.17;0.65;;;;;;;17.46;33.23;94246.53;5026064;28;20053;-81
2023/04/02 08:59:35;;;;;;;1.05;0.63;;;;;;;18.03;32.71;94237.16;5026813;28;20045;-81
2023/04/02 09:02:00;;;;;;;1.30;0.75;;;;;;;18.24;32.15;94236.94;5025528;28;20044;-80
2023/04/02 09:04:26;;;;;;;1.25;0.68;;;;;;;18.51;31.63;94244.53;5026446;28;20025;-81
2023/04/02 09:06:54;;;;;;;0.70;0.40;;;;;;;18.18;32.05;94236.94;5025425;28;20041;-80
2023/04/02 09:09:21;;;;;;;1.25;0.90;;;;;;;18.00;32.07;94240.16;5024841;28;20033;-80
2023/04/02 09:11:51;;;;;;;0.95;0.63;;;;;;;17.93;31.78;94238.63;5025613;28;20087;-80
2023/04/02 09:14:39;;;;;;;3.15;0.93;;;;;;;17.88;31.60;94238.63;5024889;28;20034;-80
2023/04/02 09:17:13;;;;;;;1.30;0.73;;;;;;;18.03;31.48;94241.97;5018471;28;20037;-80
2023/04/02 09:19:44;;;;;;;1.38;0.80;;;;;;;17.90;32.02;94238.91;5009504;28;20025;-80
2023/04/02 09:22:18;;;;;;;1.23;0.60;;;;;;;17.90;31.80;94241.69;5024561;28;20094;-80
2023/04/02 09:24:43;;;;;;;2.78;0.70;;;;;;;17.60;32.18;94236.47;5026916;28;20034;-81
2023/04/02 09:27:17;;;;;;;1.30;0.60;;;;;;;17.60;31.87;94244.81;5025882;28;20036;-80
2023/04/02 09:29:44;;;;;;;2.85;0.90;;;;;;;17.43;32.18;94241.22;5024823;28;20036;-80
2023/04/02 09:32:28;;;;;;;1.08;0.80;;;;;;;17.78;31.40;94236.09;5026278;28;20022;-80
2023/04/02 09:35:19;;;;;;;2.70;0.80;;;;;;;17.46;32.00;94229.88;5025748;28;20408;-80
2023/04/02 09:37:46;;;;;;;2.28;1.23;;;;;;;17.30;32.65;94238.13;5026486;28;20051;-80
2023/04/02 09:40:23;;;;;;;2.83;1.25;;;;;;;17.96;31.49;94237.66;5025902;28;20021;-79
2023/04/02 09:42:49;;;;;;;4.00;1.42;;;;;;;17.95;31.16;94227.78;5028593;28;20053;-80
2023/04/02 09:45:20;;;;;;;2.92;1.55;;;;;;;18.13;30.96;94232.13;5031050;28;20014;-80
2023/04/02 09:47:45;;;;;;;3.70;1.50;;;;;;;17.98;31.24;94220.47;5025779;28;20029;-77
2023/04/02 09:50:20;;;;;;;2.58;1.15;;;;;;;17.94;31.23;94219.94;5028340;28;20021;-83
2023/04/02 09:52:49;;;;;;;4.07;1.70;;;;;;;17.84;31.06;94218.66;5026334;28;20025;-80
2023/04/02 09:55:14;;;;;;;1.80;1.20;;;;;;;17.97;31.08;94213.38;5025848;28;20040;-81
2023/04/02 09:57:41;;;;;;;4.00;1.55;;;;;;;18.41;30.42;94214.69;5025498;28;20053;-81
2023/04/02 10:00:27;;;;;;;2.22;1.10;;;;;;;18.31;30.75;94211.41;5025299;28;20030;-80
2023/04/02 10:03:17;;;;;;;2.17;1.20;;;;;;;18.27;30.65;94203.31;5025556;28;20056;-79
2023/04/02 10:05:42;;;;;;;2.90;1.30;;;;;;;18.11;30.33;94212.38;5025069;28;20037;-80
2023/04/02 10:08:28;;;;;;;2.60;1.13;;;;;;;18.13;30.73;94209.88;5025573;28;20059;-82
2023/04/02 10:10:56;;;;;;;0.90;0.68;;;;;;;18.19;31.04;94207.09;5023880;28;20128;-78
2023/04/02 10:13:24;;;;;;;0.88;0.65;;;;;;;18.19;30.74;94207.84;5023512;28;20025;-79
2023/04/02 10:16:11;;;;;;;1.38;0.80;;;;;;;18.69;30.84;94212.69;5025765;28;20037;-79
2023/04/02 10:19:14;;;;;;;5.38;1.10;;;;;;;19.02;30.08;94202.75;5023365;28;20060;-79
2023/04/02 10:21:41;;;;;;;1.30;0.60;;;;;;;19.49;29.32;94183.34;5024811;28;20033;-80
2023/04/02 10:24:12;;;;;;;1.38;0.77;;;;;;;20.06;28.42;94202.09;5024271;28;20496;-81
2023/04/02 10:26:43;;;;;;;1.70;0.80;;;;;;;20.32;27.64;94196.09;5024752;28;20029;-80
2023/04/02 10:29:28;;;;;;;2.88;1.10;;;;;;;20.55;27.53;94193.91;5023460;28;20029;-81
2023/04/02 10:32:11;;;;;;;2.88;1.50;;;;;;;21.39;26.36;94195.13;5024567;28;20053;-80
2023/04/02 10:34:46;;;;;;;2.03;1.30;;;;;;;21.84;25.99;94200.19;5025122;28;20021;-80
2023/04/02 10:37:42;;;;;;;2.22;1.38;;;;;;;22.06;25.36;94201.94;5026775;28;20480;-80
2023/04/02 10:40:22;;;;;;;4.13;1.10;;;;;;;22.03;25.22;94197.41;5028615;28;20086;-79
2023/04/02 10:43:22;;;;;;;3.17;0.90;;;;;;;21.88;25.35;94198.59;5024083;28;20155;-80
2023/04/02 10:46:08;;;;;;;2.95;1.23;;;;;;;21.82;24.95;94197.94;5025331;28;20033;-80
2023/04/02 10:49:00;;;;;;;5.85;2.30;;;;;;;23.37;23.55;94203.66;5024433;28;20511;-79
2023/04/02 10:51:29;;;;;;;1.85;0.95;;;;;;;24.45;22.21;94200.91;5023585;28;20021;-79
2023/04/02 10:53:54;;;;;;;1.80;0.95;;;;;;;25.54;20.93;94190.75;5023574;28;20029;-79
2023/04/02 10:56:21;;;;;;;3.10;1.30;;;;;;;26.70;20.19;94185.03;5024186;28;20045;-79
2023/04/02 10:59:16;;;;;;;2.80;1.40;;;;;;;27.25;19.03;94192.97;5025091;28;20125;-79
2023/04/02 11:01:42;;;;;;;3.85;1.65;;;;;;;27.64;18.45;94185.19;5023182;28;20030;-78
2023/04/02 11:04:35;;;;;;;1.73;0.98;;;;;;;27.94;18.00;94187.19;5023625;28;20499;-79
2023/04/02 11:07:04;;;;;;;5.25;2.40;;;;;;;28.78;17.18;94186.78;5023457;28;20538;-78
2023/04/02 11:09:33;;;;;;;1.98;1.08;;;;;;;29.49;16.68;94191.34;5022624;28;20021;-77
2023/04/02 11:11:59;;;;;;;2.50;0.95;;;;;;;30.28;16.23;94185.78;5023508;28;20155;-78
2023/04/02 11:14:28;;;;;;;2.67;1.33;;;;;;;30.83;15.13;94190.91;5022767;28;20026;-79
2023/04/02 11:16:55;;;;;;;1.98;1.17;;;;;;;31.82;14.32;94193.47;5024802;28;20081;-78
2023/04/02 11:19:27;;;;;;;2.85;1.48;;;;;;;32.08;13.64;94186.19;5023955;28;20470;-78
2023/04/02 11:21:58;;;;;;;2.97;1.52;;;;;;;31.96;13.83;94192.47;5023294;28;20037;-78
2023/04/02 11:24:36;;;;;;;1.80;1.00;;;;;;;32.16;13.30;94193.19;5024973;28;20156;-77
2023/04/02 11:27:10;;;;;;;2.10;0.82;;;;;;;32.54;13.59;94188.09;5024088;28;20080;-78
2023/04/02 11:29:51;;;;;;;1.67;0.80;;;;;;;32.80;13.21;94189.22;5024591;28;20513;-77
2023/04/02 11:32:20;;;;;;;1.88;1.10;;;;;;;32.23;14.02;94183.78;5027284;28;20488;-78
2023/04/02 11:34:45;;;;;;;3.15;1.15;;;;;;;31.92;13.78;94189.31;5025522;28;20038;-80
2023/04/02 11:37:30;;;;;;;1.70;1.00;;;;;;;31.88;13.61;94174.78;5024800;28;20083;-79
2023/04/02 11:40:06;;;;;;;1.52;1.02;;;;;;;30.40;14.73;94166.94;5024167;28;20105;-77
2023/04/02 11:42:33;;;;;;;3.45;1.10;;;;;;;29.36;15.64;94169.72;5026695;28;20021;-77
2023/04/02 11:45:19;;;;;;;2.50;1.50;;;;;;;28.25;17.17;94172.94;5026385;28;20036;-78
2023/04/02 11:48:16;;;;;;;2.30;1.40;;;;;;;27.31;17.63;94173.03;5006963;28;20061;-78
2023/04/02 11:50:43;;;;;;;1.90;1.48;;;;;;;26.33;18.10;94158.25;5028096;28;20052;-77
2023/04/02 11:53:14;;;;;;;1.95;0.90;;;;;;;25.81;19.13;94156.78;5026055;28;20478;-78
2023/04/02 11:55:40;;;;;;;2.83;1.40;;;;;;;25.32;19.95;94149.91;5028280;28;20034;-79
2023/04/02 11:58:06;;;;;;;1.25;0.90;;;;;;;25.08;20.07;94150.34;5027039;28;20083;-78
2023/04/02 12:00:50;;;;;;;1.23;0.85;;;;;;;24.97;19.88;94159.78;5028239;28;20049;-77
2023/04/02 12:03:40;;;;;;;1.73;0.82;;;;;;;24.64;20.30;94161.38;5028039;28;20395;-78
2023/04/02 12:06:30;;;;;;;1.45;0.90;;;;;;;24.39;20.37;94155.34;5027634;28;20060;-78
2023/04/02 12:09:14;;;;;;;2.53;1.30;;;;;;;24.05;20.42;94160.97;5028655;28;20138;-78